TAF Text Data
IDs:
Format:
Raw Decoded Include METAR

Data at: 2115 UTC 01 Oct 2022

WIII 012100Z 26003KT 5000 HZ SCT020 25/24 Q1008 NOSIG

TAF WIII 011700Z 0118/0224 VRB05KT 5000 HZ SCT020
  TEMPO 0118/0122 17010KT 3000 TSRA FEW015CB
  BECMG 0203/0205 07012KT 9000 NSW